createdAt,value
2022-09-15T00:00:37.219Z,98271.33
2022-09-15T00:03:09.234Z,98260.10
2022-09-15T00:05:41.272Z,98262.03
2022-09-15T00:08:13.803Z,98261.89
2022-09-15T00:10:58.498Z,98260.37
2022-09-15T00:13:30.377Z,98263.00
2022-09-15T00:16:02.310Z,98260.23
2022-09-15T00:18:35.516Z,98259.25
2022-09-15T00:21:13.131Z,98257.47
2022-09-15T00:23:45.751Z,98255.50
2022-09-15T00:26:20.610Z,98253.72
2022-09-15T00:28:53.250Z,98255.50
2022-09-15T00:31:27.097Z,98249.96
2022-09-15T00:34:02.297Z,98250.81
2022-09-15T00:36:34.122Z,98243.58
2022-09-15T00:39:06.803Z,98245.40
2022-09-15T00:41:41.061Z,98250.67
2022-09-15T00:44:22.012Z,98252.33
2022-09-15T00:47:15.673Z,98244.16
2022-09-15T00:49:34.049Z,98241.65
2022-09-15T00:52:08.910Z,98244.16
2022-09-15T00:54:49.469Z,98240.53
2022-09-15T00:57:30.704Z,98228.02
2022-09-15T01:00:05.062Z,98228.02
2022-09-15T01:02:38.515Z,98234.01
2022-09-15T01:05:13.119Z,98238.30
2022-09-15T01:07:48.720Z,98236.52
2022-09-15T01:10:26.077Z,98242.47
2022-09-15T01:13:01.397Z,98237.05
2022-09-15T01:15:55.604Z,98233.73
2022-09-15T01:18:48.428Z,98237.19
2022-09-15T01:21:41.464Z,98239.02
2022-09-15T01:24:16.687Z,98237.19
2022-09-15T01:27:30.601Z,98237.19
2022-09-15T01:29:55.258Z,98230.12
2022-09-15T01:32:47.710Z,98231.64
2022-09-15T01:35:25.660Z,98229.98
2022-09-15T01:38:03.500Z,98228.16
2022-09-15T01:40:38.526Z,98224.57
2022-09-15T01:43:12.412Z,98232.48
2022-09-15T01:45:47.588Z,98232.48
2022-09-15T01:48:22.424Z,98230.66
2022-09-15T01:50:57.564Z,98227.20
2022-09-15T01:53:30.115Z,98230.66
2022-09-15T01:56:11.087Z,98213.04
2022-09-15T01:58:43.210Z,98213.04
2022-09-15T02:01:31.813Z,98228.02
2022-09-15T02:04:10.027Z,98225.25
2022-09-15T02:07:02.986Z,98229.55
2022-09-15T02:09:37.782Z,98223.45
2022-09-15T02:12:25.441Z,98228.59
2022-09-15T02:15:02.028Z,98234.82
2022-09-15T02:17:38.321Z,98231.23
2022-09-15T02:20:29.683Z,98220.68
2022-09-15T02:23:05.700Z,98220.68
2022-09-15T02:25:43.679Z,98231.23
2022-09-15T02:28:18.345Z,98230.25
2022-09-15T02:30:50.071Z,98224.27
2022-09-15T02:33:24.308Z,98224.93
2022-09-15T02:35:56.898Z,98222.48
2022-09-15T02:38:31.799Z,98224.41
2022-09-15T02:41:05.276Z,98225.38
2022-09-15T02:43:40.173Z,98227.20
2022-09-15T02:46:12.368Z,98221.23
2022-09-15T02:48:44.421Z,98227.34
2022-09-15T02:51:18.036Z,98228.02
2022-09-15T02:53:50.845Z,98226.37
2022-09-15T02:56:22.860Z,98227.05
2022-09-15T02:58:54.921Z,98223.73
2022-09-15T03:01:34.109Z,98233.30
2022-09-15T03:04:06.289Z,98221.09
2022-09-15T03:06:38.303Z,98227.20
2022-09-15T03:09:10.888Z,98228.87
2022-09-15T03:11:43.002Z,98224.70
2022-09-15T03:14:15.054Z,98224.70
2022-09-15T03:16:47.679Z,98230.80
2022-09-15T03:19:19.560Z,98232.48
2022-09-15T03:21:52.142Z,98236.08
2022-09-15T03:24:24.147Z,98212.50
2022-09-15T03:26:56.198Z,98233.30
2022-09-15T03:29:28.101Z,98232.32
2022-09-15T03:31:59.974Z,98232.32
2022-09-15T03:34:32.072Z,98226.91
2022-09-15T03:37:04.155Z,98229.41
2022-09-15T03:39:36.038Z,98220.38
2022-09-15T03:42:10.021Z,98225.38
2022-09-15T03:44:42.416Z,98223.59
2022-09-15T03:47:14.386Z,98224.40
2022-09-15T03:49:46.564Z,98207.63
2022-09-15T03:52:18.878Z,98207.63
2022-09-15T03:54:50.918Z,98219.39
2022-09-15T03:57:22.892Z,98219.39
2022-09-15T03:59:55.030Z,98216.61
2022-09-15T04:02:27.348Z,98216.61
2022-09-15T04:04:59.964Z,98220.37
2022-09-15T04:07:33.255Z,98216.88
2022-09-15T04:10:05.565Z,98219.69
2022-09-15T04:12:38.155Z,98220.64
2022-09-15T04:15:10.961Z,98226.05
2022-09-15T04:17:42.974Z,98233.03
2022-09-15T04:20:16.150Z,98210.27
2022-09-15T04:22:48.584Z,98210.27
2022-09-15T04:25:20.561Z,98235.22
2022-09-15T04:27:53.021Z,98235.36
2022-09-15T04:30:24.881Z,98234.41
2022-09-15T04:32:56.896Z,98232.45
2022-09-15T04:35:28.972Z,98233.97
2022-09-15T04:38:00.942Z,98233.97
2022-09-15T04:40:33.871Z,98232.17
2022-09-15T04:43:06.861Z,98232.84
2022-09-15T04:45:39.024Z,98227.43
2022-09-15T04:48:11.698Z,98228.14
2022-09-15T04:50:43.664Z,98228.95
2022-09-15T04:53:16.155Z,98218.25
2022-09-15T04:55:48.395Z,98218.25
2022-09-15T04:58:20.758Z,98220.48
2022-09-15T05:00:52.858Z,98230.80
2022-09-15T05:03:25.002Z,98230.80
2022-09-15T05:05:56.881Z,98212.32
2022-09-15T05:08:30.594Z,98211.72
2022-09-15T05:11:05.182Z,98226.56
2022-09-15T05:13:38.651Z,98204.20
2022-09-15T05:16:13.527Z,98228.48
2022-09-15T05:18:47.064Z,98229.86
2022-09-15T05:21:21.506Z,98230.28
2022-09-15T05:23:54.703Z,98228.31
2022-09-15T05:26:29.848Z,98221.66
2022-09-15T05:29:02.001Z,98214.44
2022-09-15T05:31:35.150Z,98206.09
2022-09-15T05:34:07.604Z,98220.25
2022-09-15T05:36:39.680Z,98201.38
2022-09-15T05:39:11.737Z,98223.53
2022-09-15T05:41:43.702Z,98223.53
2022-09-15T05:44:15.638Z,98218.95
2022-09-15T05:46:47.980Z,98222.58
2022-09-15T05:49:20.522Z,98225.50
2022-09-15T05:51:52.579Z,98219.23
2022-09-15T05:54:24.676Z,98232.30
2022-09-15T05:56:56.819Z,98232.30
2022-09-15T05:59:28.904Z,98229.80
2022-09-15T06:02:01.126Z,98197.77
2022-09-15T06:04:34.325Z,98231.94
2022-09-15T06:07:06.241Z,98234.05
2022-09-15T06:09:39.510Z,98232.50
2022-09-15T06:12:11.711Z,98212.83
2022-09-15T06:14:44.940Z,98220.05
2022-09-15T06:17:19.183Z,98220.05
2022-09-15T06:19:51.468Z,98237.52
2022-09-15T06:22:23.503Z,98238.09
2022-09-15T06:24:55.654Z,98243.38
2022-09-15T06:27:28.213Z,98245.88
2022-09-15T06:30:00.415Z,98238.48
2022-09-15T06:32:34.148Z,98252.67
2022-09-15T06:35:07.380Z,98242.14
2022-09-15T06:37:40.081Z,98255.18
2022-09-15T06:40:12.523Z,98255.71
2022-09-15T06:42:44.637Z,98255.71
2022-09-15T06:45:17.090Z,98232.95
2022-09-15T06:48:02.214Z,98256.11
2022-09-15T06:50:23.400Z,98256.11
2022-09-15T06:52:55.593Z,98260.12
2022-09-15T06:55:28.475Z,98266.25
2022-09-15T06:58:00.536Z,98259.28
2022-09-15T07:00:32.885Z,98275.42
2022-09-15T07:03:04.930Z,98275.50
2022-09-15T07:05:37.045Z,98267.85
2022-09-15T07:08:09.111Z,98267.85
2022-09-15T07:10:42.684Z,98278.67
2022-09-15T07:13:14.915Z,98276.03
2022-09-15T07:15:58.946Z,98278.53
2022-09-15T07:18:32.058Z,98270.32
2022-09-15T07:21:07.526Z,98270.32
2022-09-15T07:23:40.085Z,98283.39
2022-09-15T07:26:29.430Z,98277.86
2022-09-15T07:29:04.321Z,98277.86
2022-09-15T07:31:38.908Z,98287.87
2022-09-15T07:34:11.258Z,98279.45
2022-09-15T07:36:43.322Z,98282.89
2022-09-15T07:39:15.568Z,98262.46
2022-09-15T07:41:48.041Z,98262.46
2022-09-15T07:44:19.984Z,98282.79
2022-09-15T07:46:52.264Z,98279.23
2022-09-15T07:49:24.596Z,98292.70
2022-09-15T07:51:56.780Z,98291.27
2022-09-15T07:54:28.830Z,98291.27
2022-09-15T07:57:00.891Z,98291.27
2022-09-15T07:59:33.404Z,98281.27
2022-09-15T08:02:05.458Z,98294.29
2022-09-15T08:04:37.479Z,98284.63
2022-09-15T08:07:09.350Z,98281.90
2022-09-15T08:09:42.441Z,98292.09
2022-09-15T08:12:14.317Z,98281.62
2022-09-15T08:14:46.567Z,98291.53
2022-09-15T08:17:18.706Z,98289.89
2022-09-15T08:19:51.118Z,98288.00
2022-09-15T08:22:23.133Z,98295.58
2022-09-15T08:24:55.442Z,98292.62
2022-09-15T08:27:27.373Z,98292.66
2022-09-15T08:29:59.351Z,98285.72
2022-09-15T08:32:33.297Z,98292.59
2022-09-15T08:35:05.466Z,98284.52
2022-09-15T08:37:37.429Z,98286.34
2022-09-15T08:40:12.825Z,98289.86
2022-09-15T08:42:46.170Z,98286.86
2022-09-15T08:45:30.060Z,98288.55
2022-09-15T08:48:04.531Z,98281.89
2022-09-15T08:50:40.287Z,98284.39
2022-09-15T08:53:27.641Z,98297.04
2022-09-15T08:56:06.248Z,98290.89
2022-09-15T08:58:38.887Z,98292.05
2022-09-15T09:01:48.709Z,98294.70
2022-09-15T09:04:29.601Z,98299.35
2022-09-15T09:07:27.140Z,98299.47
2022-09-15T09:10:25.924Z,98305.55
2022-09-15T09:13:17.271Z,98309.95
2022-09-15T09:16:07.159Z,98310.26
2022-09-15T09:19:13.633Z,98311.91
2022-09-15T09:21:51.921Z,98313.56
2022-09-15T09:24:29.910Z,98310.60
2022-09-15T09:27:01.992Z,98313.09
2022-09-15T09:29:39.876Z,98323.34
2022-09-15T09:32:25.075Z,98321.95
2022-09-15T09:35:06.024Z,98319.02
2022-09-15T09:37:38.386Z,98321.16
2022-09-15T09:40:16.147Z,98327.13
2022-09-15T09:42:48.274Z,98322.02
2022-09-15T09:45:21.176Z,98327.73
2022-09-15T09:47:57.228Z,98333.80
2022-09-15T09:50:36.594Z,98333.09
2022-09-15T09:53:33.836Z,98328.32
2022-09-15T09:56:20.878Z,98332.18
2022-09-15T09:58:54.339Z,98323.49
2022-09-15T10:01:27.868Z,98334.09
2022-09-15T10:04:15.066Z,98336.89
2022-09-15T10:06:47.355Z,98335.52
2022-09-15T10:09:20.685Z,98337.41
2022-09-15T10:12:01.824Z,98342.03
2022-09-15T10:14:36.857Z,98340.34
2022-09-15T10:17:17.768Z,98331.66
2022-09-15T10:19:55.512Z,98335.77
2022-09-15T10:22:36.767Z,98338.48
2022-09-15T10:25:39.483Z,98338.36
2022-09-15T10:28:11.790Z,98342.36
2022-09-15T10:31:15.035Z,98340.41
2022-09-15T10:33:48.047Z,98342.91
2022-09-15T10:36:31.934Z,98352.66
2022-09-15T10:39:13.016Z,98354.11
2022-09-15T10:41:51.340Z,98352.23
2022-09-15T10:44:35.078Z,98353.09
2022-09-15T10:47:19.179Z,98348.50
2022-09-15T10:50:12.227Z,98345.18
2022-09-15T10:52:55.930Z,98342.52
2022-09-15T10:55:51.673Z,98344.17
2022-09-15T10:58:45.148Z,98347.73
2022-09-15T11:01:37.722Z,98348.62
2022-09-15T11:04:21.811Z,98351.59
2022-09-15T11:07:20.983Z,98357.19
2022-09-15T11:09:58.849Z,98364.02
2022-09-15T11:12:46.611Z,98359.09
2022-09-15T11:15:24.516Z,98366.80
2022-09-15T11:18:32.625Z,98363.02
2022-09-15T11:21:28.890Z,98376.24
2022-09-15T11:24:31.384Z,98383.35
2022-09-15T11:27:30.540Z,98382.65
2022-09-15T11:30:08.858Z,98373.26
2022-09-15T11:32:44.945Z,98383.01
2022-09-15T11:35:39.106Z,98387.92
2022-09-15T11:38:42.929Z,98384.34
2022-09-15T11:41:18.134Z,98392.73
2022-09-15T11:43:56.542Z,98389.85
2022-09-15T11:46:34.675Z,98396.56
2022-09-15T11:49:18.914Z,98378.22
2022-09-15T11:52:18.898Z,98397.59
2022-09-15T11:55:03.061Z,98393.70
2022-09-15T11:57:43.844Z,98398.30
2022-09-15T12:00:17.211Z,98395.65
2022-09-15T12:03:11.343Z,98397.02
2022-09-15T12:06:02.788Z,98395.33
2022-09-15T12:08:40.270Z,98393.91
2022-09-15T12:11:17.907Z,98387.55
2022-09-15T12:13:50.765Z,98387.55
2022-09-15T12:16:24.184Z,98387.25
2022-09-15T12:19:14.593Z,98383.13
2022-09-15T12:22:01.417Z,98387.47
2022-09-15T12:24:46.161Z,98380.61
2022-09-15T12:27:20.849Z,98392.58
2022-09-15T12:29:55.265Z,98384.25
2022-09-15T12:32:33.816Z,98386.98
2022-09-15T12:35:18.038Z,98391.41
2022-09-15T12:37:54.938Z,98385.85
2022-09-15T12:40:36.255Z,98391.23
2022-09-15T12:43:20.146Z,98391.99
2022-09-15T12:45:58.562Z,98382.30
2022-09-15T12:48:33.613Z,98380.16
2022-09-15T12:51:10.150Z,98385.31
2022-09-15T12:53:58.310Z,98387.27
2022-09-15T12:56:33.868Z,98383.69
2022-09-15T12:59:08.210Z,98379.80
2022-09-15T13:01:51.814Z,98383.41
2022-09-15T13:04:44.781Z,98381.66
2022-09-15T13:07:19.826Z,98380.41
2022-09-15T13:10:17.227Z,98383.02
2022-09-15T13:12:55.645Z,98385.05
2022-09-15T13:15:30.157Z,98377.43
2022-09-15T13:18:05.118Z,98384.55
2022-09-15T13:20:40.494Z,98385.89
2022-09-15T13:23:15.379Z,98390.61
2022-09-15T13:25:49.319Z,98387.97
2022-09-15T13:28:22.718Z,98381.20
2022-09-15T13:31:04.134Z,98388.02
2022-09-15T13:39:34.869Z,98405.35
2022-09-15T13:42:25.101Z,98405.59
2022-09-15T13:45:15.428Z,98407.32
2022-09-15T13:47:50.738Z,98408.73
2022-09-15T13:50:37.685Z,98411.33
2022-09-15T13:53:15.620Z,98413.63
2022-09-15T13:55:48.632Z,98414.23
2022-09-15T14:01:06.950Z,98417.83
2022-09-15T14:03:42.043Z,98411.83
2022-09-15T14:06:23.557Z,98411.84
2022-09-15T14:08:58.730Z,98415.91
2022-09-15T14:11:33.894Z,98418.41
2022-09-15T14:14:09.309Z,98418.72
2022-09-15T14:16:42.795Z,98417.17
2022-09-15T14:19:37.293Z,98426.13
2022-09-15T14:22:25.603Z,98425.59
2022-09-15T14:24:59.419Z,98419.59
2022-09-15T14:27:35.868Z,98426.00
2022-09-15T14:30:10.534Z,98425.26
2022-09-15T14:32:46.260Z,98433.80
2022-09-15T14:35:21.848Z,98431.69
2022-09-15T14:38:01.081Z,98433.91
2022-09-15T14:40:39.489Z,98431.12
2022-09-15T14:43:29.543Z,98429.86
2022-09-15T14:46:18.038Z,98437.15
2022-09-15T14:48:50.677Z,98440.04
2022-09-15T14:51:32.061Z,98433.14
2022-09-15T14:54:06.740Z,98442.66
2022-09-15T14:56:39.306Z,98440.30
2022-09-15T14:59:19.829Z,98452.59
2022-09-15T15:02:03.752Z,98442.11
2022-09-15T15:04:39.321Z,98443.09
2022-09-15T15:07:22.949Z,98447.72
2022-09-15T15:10:01.114Z,98441.87
2022-09-15T15:12:40.384Z,98438.69
2022-09-15T15:15:17.211Z,98435.52
2022-09-15T15:17:58.652Z,98439.44
2022-09-15T15:20:33.512Z,98442.23
2022-09-15T15:23:17.675Z,98433.59
2022-09-15T15:25:50.571Z,98443.05
2022-09-15T15:28:34.637Z,98438.45
2022-09-15T15:31:22.067Z,98430.66
2022-09-15T15:34:03.565Z,98435.66
2022-09-15T15:36:37.184Z,98433.02
2022-09-15T15:39:11.179Z,98434.96
2022-09-15T15:41:44.929Z,98440.26
2022-09-15T15:44:19.951Z,98445.87
2022-09-15T15:46:55.885Z,98443.94
2022-09-15T15:49:30.576Z,98441.19
2022-09-15T15:52:03.955Z,98439.88
2022-09-15T15:54:36.292Z,98452.58
2022-09-15T15:57:30.435Z,98442.98
2022-09-15T16:00:03.237Z,98437.31
2022-09-15T16:02:35.283Z,98440.97
2022-09-15T16:05:07.781Z,98447.83
2022-09-15T16:07:40.739Z,98446.04
2022-09-15T16:10:16.247Z,98437.84
2022-09-15T16:12:48.424Z,98434.77
2022-09-15T16:15:22.361Z,98437.92
2022-09-15T16:17:54.584Z,98439.97
2022-09-15T16:20:28.350Z,98443.30
2022-09-15T16:23:01.790Z,98440.92
2022-09-15T16:25:37.212Z,98448.80
2022-09-15T16:28:10.167Z,98446.30
2022-09-15T16:30:42.639Z,98449.02
2022-09-15T16:33:16.861Z,98420.73
2022-09-15T16:35:56.403Z,98420.73
2022-09-15T16:38:28.559Z,98443.70
2022-09-15T16:41:01.503Z,98442.11
2022-09-15T16:43:33.468Z,98438.06
2022-09-15T16:46:07.800Z,98454.08
2022-09-15T16:48:41.327Z,98448.18
2022-09-15T16:51:25.207Z,98449.42
2022-09-15T16:53:54.434Z,98445.50
2022-09-15T16:56:27.109Z,98441.25
2022-09-15T16:59:00.864Z,98441.25
2022-09-15T17:01:33.708Z,98452.52
2022-09-15T17:04:12.784Z,98445.10
2022-09-15T17:06:48.366Z,98450.33
2022-09-15T17:09:20.873Z,98451.91
2022-09-15T17:11:54.991Z,98457.69
2022-09-15T17:14:27.655Z,98466.52
2022-09-15T17:16:59.843Z,98466.03
2022-09-15T17:19:32.577Z,98462.44
2022-09-15T17:22:04.929Z,98462.67
2022-09-15T17:24:37.488Z,98470.13
2022-09-15T17:27:09.852Z,98459.02
2022-09-15T17:29:42.578Z,98467.03
2022-09-15T17:32:14.696Z,98471.00
2022-09-15T17:34:47.522Z,98470.55
2022-09-15T17:37:20.927Z,98470.08
2022-09-15T17:39:58.800Z,98467.57
2022-09-15T17:42:28.545Z,98470.44
2022-09-15T17:45:01.867Z,98466.39
2022-09-15T17:47:34.322Z,98467.59
2022-09-15T17:50:06.910Z,98466.16
2022-09-15T17:52:40.698Z,98462.23
2022-09-15T17:55:21.533Z,98462.49
2022-09-15T17:57:53.884Z,98458.16
2022-09-15T18:00:28.956Z,98457.47
2022-09-15T18:03:03.590Z,98450.78
2022-09-15T18:05:39.727Z,98452.09
2022-09-15T18:08:12.425Z,98454.00
2022-09-15T18:10:46.761Z,98447.08
2022-09-15T18:13:21.644Z,98445.99
2022-09-15T18:15:54.808Z,98450.32
2022-09-15T18:18:29.018Z,98449.35
2022-09-15T18:21:04.308Z,98441.58
2022-09-15T18:23:37.536Z,98446.50
2022-09-15T18:26:09.687Z,98442.55
2022-09-15T18:28:42.091Z,98449.74
2022-09-15T18:31:17.700Z,98443.05
2022-09-15T18:33:51.105Z,98440.27
2022-09-15T18:36:23.337Z,98443.75
2022-09-15T18:38:55.442Z,98443.02
2022-09-15T18:41:28.575Z,98449.01
2022-09-15T18:44:00.637Z,98445.41
2022-09-15T18:46:34.113Z,98448.05
2022-09-15T18:49:08.919Z,98451.37
2022-09-15T18:51:57.550Z,98452.95
2022-09-15T18:54:16.035Z,98441.58
2022-09-15T18:56:48.867Z,98442.55
2022-09-15T18:59:21.416Z,98441.12
2022-09-15T19:01:53.473Z,98437.06
2022-09-15T19:04:31.065Z,98442.31
2022-09-15T19:06:59.317Z,98440.89
2022-09-15T19:09:31.674Z,98439.80
2022-09-15T19:12:04.857Z,98440.04
2022-09-15T19:14:37.117Z,98440.66
2022-09-15T19:17:10.467Z,98444.22
2022-09-15T19:19:43.058Z,98447.81
2022-09-15T19:22:15.128Z,98442.67
2022-09-15T19:24:47.309Z,98441.97
2022-09-15T19:27:19.560Z,98442.41
2022-09-15T19:29:52.342Z,98439.19
2022-09-15T19:32:24.455Z,98438.47
2022-09-15T19:34:56.499Z,98435.13
2022-09-15T19:37:28.627Z,98439.89
2022-09-15T19:40:01.213Z,98436.33
2022-09-15T19:42:33.631Z,98439.08
2022-09-15T19:45:06.566Z,98435.37
2022-09-15T19:47:40.068Z,98434.64
2022-09-15T19:50:12.640Z,98431.89
2022-09-15T19:52:44.722Z,98439.69
2022-09-15T19:55:18.248Z,98436.45
2022-09-15T19:57:50.120Z,98434.90
2022-09-15T20:00:22.044Z,98427.02
2022-09-15T20:02:54.225Z,98422.95
2022-09-15T20:05:26.366Z,98422.34
2022-09-15T20:07:59.816Z,98430.61
2022-09-15T20:10:31.719Z,98431.80
2022-09-15T20:13:03.735Z,98431.92
2022-09-15T20:15:36.056Z,98432.73
2022-09-15T20:18:09.826Z,98434.66
2022-09-15T20:20:41.960Z,98438.25
2022-09-15T20:23:15.328Z,98430.37
2022-09-15T20:26:01.359Z,98433.00
2022-09-15T20:28:33.894Z,98432.14
2022-09-15T20:31:11.643Z,98439.91
2022-09-15T20:33:45.841Z,98430.48
2022-09-15T20:36:21.683Z,98440.41
2022-09-15T20:38:54.799Z,98435.27
2022-09-15T20:41:28.590Z,98424.98
2022-09-15T20:44:01.054Z,98431.44
2022-09-15T20:46:33.644Z,98428.45
2022-09-15T20:49:06.127Z,98427.97
2022-09-15T20:51:38.049Z,98429.05
2022-09-15T20:54:11.502Z,98430.09
2022-09-15T20:56:43.492Z,98426.03
2022-09-15T20:59:15.556Z,98421.73
2022-09-15T21:01:47.601Z,98415.67
2022-09-15T21:04:20.729Z,98425.80
2022-09-15T21:06:52.807Z,98419.59
2022-09-15T21:09:25.000Z,98420.44
2022-09-15T21:11:57.120Z,98416.73
2022-09-15T21:14:29.363Z,98420.80
2022-09-15T21:17:01.418Z,98425.20
2022-09-15T21:19:33.495Z,98417.20
2022-09-15T21:22:05.451Z,98411.95
2022-09-15T21:24:37.259Z,98417.47
2022-09-15T21:27:27.501Z,98416.62
2022-09-15T21:29:59.557Z,98419.36
2022-09-15T21:32:34.063Z,98412.55
2022-09-15T21:35:07.543Z,98413.63
2022-09-15T21:37:39.424Z,98413.04
2022-09-15T21:40:13.116Z,98412.31
2022-09-15T21:42:45.292Z,98415.05
2022-09-15T21:45:17.270Z,98408.83
2022-09-15T21:47:49.319Z,98402.88
2022-09-15T21:50:21.267Z,98403.11
2022-09-15T21:52:53.180Z,98411.72
2022-09-15T21:55:25.832Z,98402.88
2022-09-15T21:57:57.967Z,98405.39
2022-09-15T22:00:30.247Z,98404.31
2022-09-15T22:03:02.215Z,98404.09
2022-09-15T22:05:34.718Z,98396.91
2022-09-15T22:08:08.638Z,98403.83
2022-09-15T22:10:42.136Z,98395.13
2022-09-15T22:13:14.415Z,98394.40
2022-09-15T22:15:46.326Z,98394.28
2022-09-15T22:18:18.405Z,98405.27
2022-09-15T22:20:51.930Z,98402.64
2022-09-15T22:23:24.104Z,98389.39
2022-09-15T22:25:56.148Z,98389.39
2022-09-15T22:28:28.112Z,98388.42
2022-09-15T22:31:01.499Z,98381.51
2022-09-15T22:33:34.177Z,98385.95
2022-09-15T22:36:06.343Z,98383.32
2022-09-15T22:38:38.758Z,98380.92
2022-09-15T22:41:13.427Z,98387.14
2022-09-15T22:43:47.984Z,98387.25
2022-09-15T22:46:21.124Z,98383.89
2022-09-15T22:48:53.653Z,98389.03
2022-09-15T22:51:26.017Z,98386.52
2022-09-15T22:53:58.474Z,98381.53
2022-09-15T22:56:30.644Z,98386.89
2022-09-15T22:59:02.900Z,98388.09
2022-09-15T23:01:34.900Z,98388.42
2022-09-15T23:04:06.957Z,98386.03
2022-09-15T23:06:38.935Z,98386.17
2022-09-15T23:09:12.606Z,98380.41
2022-09-15T23:11:44.570Z,98393.80
2022-09-15T23:14:18.194Z,98384.11
2022-09-15T23:16:50.178Z,98392.10
2022-09-15T23:19:22.707Z,98387.81
2022-09-15T23:21:54.548Z,98388.04
2022-09-15T23:24:26.448Z,98386.03
2022-09-15T23:26:58.543Z,98381.71
2022-09-15T23:29:30.400Z,98375.53
2022-09-15T23:32:02.234Z,98380.16
2022-09-15T23:34:34.050Z,98373.36
2022-09-15T23:37:06.090Z,98377.80
2022-09-15T23:39:38.048Z,98370.14
2022-09-15T23:42:10.098Z,98380.53
2022-09-15T23:44:43.101Z,98371.11
2022-09-15T23:47:14.939Z,98369.30
2022-09-15T23:49:47.079Z,98365.12
2022-09-15T23:52:19.089Z,98362.02
2022-09-15T23:54:50.981Z,98357.62
2022-09-15T23:57:22.957Z,98357.73
2022-09-15T23:59:54.750Z,98356.03
